sensor_id;sensor_type;location;lat;lon;timestamp;temperature;humidity
4520;DHT22;2272;49.226;8.108;2023-05-21T00:01:15;15.30;99.90
4520;DHT22;2272;49.226;8.108;2023-05-21T00:03:42;15.30;99.90
4520;DHT22;2272;49.226;8.108;2023-05-21T00:06:10;15.20;99.90
4520;DHT22;2272;49.226;8.108;2023-05-21T00:08:37;15.20;99.90
4520;DHT22;2272;49.226;8.108;2023-05-21T00:11:06;15.20;99.90
4520;DHT22;2272;49.226;8.108;2023-05-21T00:13:32;15.20;99.90
4520;DHT22;2272;49.226;8.108;2023-05-21T00:15:59;15.20;99.90
4520;DHT22;2272;49.226;8.108;2023-05-21T00:18:26;15.20;99.90
4520;DHT22;2272;49.226;8.108;2023-05-21T00:20:53;15.20;99.90
4520;DHT22;2272;49.226;8.108;2023-05-21T00:23:22;15.20;99.90
4520;DHT22;2272;49.226;8.108;2023-05-21T00:25:51;15.20;99.90
4520;DHT22;2272;49.226;8.108;2023-05-21T00:28:19;15.30;99.90
4520;DHT22;2272;49.226;8.108;2023-05-21T00:30:46;15.30;99.90
4520;DHT22;2272;49.226;8.108;2023-05-21T00:33:13;15.30;99.90
4520;DHT22;2272;49.226;8.108;2023-05-21T00:35:40;15.30;99.90
4520;DHT22;2272;49.226;8.108;2023-05-21T00:38:06;15.30;99.90
4520;DHT22;2272;49.226;8.108;2023-05-21T00:40:34;15.30;99.90
4520;DHT22;2272;49.226;8.108;2023-05-21T00:43:01;15.30;99.90
4520;DHT22;2272;49.226;8.108;2023-05-21T00:45:29;15.30;99.90
4520;DHT22;2272;49.226;8.108;2023-05-21T00:47:56;15.40;99.90
4520;DHT22;2272;49.226;8.108;2023-05-21T00:50:23;15.40;99.90
4520;DHT22;2272;49.226;8.108;2023-05-21T00:52:50;15.30;99.90
4520;DHT22;2272;49.226;8.108;2023-05-21T00:55:17;15.40;99.90
4520;DHT22;2272;49.226;8.108;2023-05-21T00:57:44;15.40;99.90
4520;DHT22;2272;49.226;8.108;2023-05-21T01:00:13;15.40;99.90
4520;DHT22;2272;49.226;8.108;2023-05-21T01:02:42;15.40;99.90
4520;DHT22;2272;49.226;8.108;2023-05-21T01:05:11;15.40;99.90
4520;DHT22;2272;49.226;8.108;2023-05-21T01:07:40;15.30;99.90
4520;DHT22;2272;49.226;8.108;2023-05-21T01:10:09;15.30;99.90
4520;DHT22;2272;49.226;8.108;2023-05-21T01:12:38;15.20;99.90
4520;DHT22;2272;49.226;8.108;2023-05-21T01:15:09;15.30;99.90
4520;DHT22;2272;49.226;8.108;2023-05-21T01:17:37;15.20;99.90
4520;DHT22;2272;49.226;8.108;2023-05-21T01:20:08;15.20;99.90
4520;DHT22;2272;49.226;8.108;2023-05-21T01:22:38;15.20;99.90
4520;DHT22;2272;49.226;8.108;2023-05-21T01:25:11;15.20;99.90
4520;DHT22;2272;49.226;8.108;2023-05-21T01:27:39;15.30;99.90
4520;DHT22;2272;49.226;8.108;2023-05-21T01:30:07;15.30;99.90
4520;DHT22;2272;49.226;8.108;2023-05-21T01:32:39;15.30;99.90
4520;DHT22;2272;49.226;8.108;2023-05-21T01:35:11;15.20;99.90
4520;DHT22;2272;49.226;8.108;2023-05-21T01:37:45;15.20;99.90
4520;DHT22;2272;49.226;8.108;2023-05-21T01:40:22;15.30;99.90
4520;DHT22;2272;49.226;8.108;2023-05-21T01:42:51;15.30;99.90
4520;DHT22;2272;49.226;8.108;2023-05-21T01:45:19;15.30;99.90
4520;DHT22;2272;49.226;8.108;2023-05-21T01:47:49;15.30;99.90
4520;DHT22;2272;49.226;8.108;2023-05-21T01:50:17;15.40;99.90
4520;DHT22;2272;49.226;8.108;2023-05-21T01:52:48;15.40;99.90
4520;DHT22;2272;49.226;8.108;2023-05-21T01:55:17;15.30;99.90
4520;DHT22;2272;49.226;8.108;2023-05-21T01:57:44;15.30;99.90
4520;DHT22;2272;49.226;8.108;2023-05-21T02:00:12;15.30;99.90
4520;DHT22;2272;49.226;8.108;2023-05-21T02:02:41;15.20;99.90
4520;DHT22;2272;49.226;8.108;2023-05-21T02:05:08;15.20;99.90
4520;DHT22;2272;49.226;8.108;2023-05-21T02:07:35;15.20;99.90
4520;DHT22;2272;49.226;8.108;2023-05-21T02:10:02;15.20;99.90
4520;DHT22;2272;49.226;8.108;2023-05-21T02:12:30;15.10;99.90
4520;DHT22;2272;49.226;8.108;2023-05-21T02:14:57;15.10;99.90
4520;DHT22;2272;49.226;8.108;2023-05-21T02:17:26;15.10;99.90
4520;DHT22;2272;49.226;8.108;2023-05-21T02:19:55;15.00;99.90
4520;DHT22;2272;49.226;8.108;2023-05-21T02:22:22;14.90;99.90
4520;DHT22;2272;49.226;8.108;2023-05-21T02:24:49;14.90;99.90
4520;DHT22;2272;49.226;8.108;2023-05-21T02:27:15;14.80;99.90
4520;DHT22;2272;49.226;8.108;2023-05-21T02:29:45;14.80;99.90
4520;DHT22;2272;49.226;8.108;2023-05-21T02:32:12;14.80;99.90
4520;DHT22;2272;49.226;8.108;2023-05-21T02:34:39;14.70;99.90
4520;DHT22;2272;49.226;8.108;2023-05-21T02:37:08;14.70;99.90
4520;DHT22;2272;49.226;8.108;2023-05-21T02:39:35;14.70;99.90
4520;DHT22;2272;49.226;8.108;2023-05-21T02:42:02;14.60;99.90
4520;DHT22;2272;49.226;8.108;2023-05-21T02:44:28;14.60;99.90
4520;DHT22;2272;49.226;8.108;2023-05-21T02:46:57;14.60;99.90
4520;DHT22;2272;49.226;8.108;2023-05-21T02:49:24;14.60;99.90
4520;DHT22;2272;49.226;8.108;2023-05-21T02:51:50;14.60;99.90
4520;DHT22;2272;49.226;8.108;2023-05-21T02:54:17;14.60;99.90
4520;DHT22;2272;49.226;8.108;2023-05-21T02:56:44;14.50;99.90
4520;DHT22;2272;49.226;8.108;2023-05-21T02:59:11;14.50;99.90
4520;DHT22;2272;49.226;8.108;2023-05-21T03:01:40;14.50;99.90
4520;DHT22;2272;49.226;8.108;2023-05-21T03:04:10;14.50;99.90
4520;DHT22;2272;49.226;8.108;2023-05-21T03:06:37;14.50;99.90
4520;DHT22;2272;49.226;8.108;2023-05-21T03:09:04;14.50;99.90
4520;DHT22;2272;49.226;8.108;2023-05-21T03:11:33;14.50;99.90
4520;DHT22;2272;49.226;8.108;2023-05-21T03:13:59;14.60;99.90
4520;DHT22;2272;49.226;8.108;2023-05-21T03:16:26;14.50;99.90
4520;DHT22;2272;49.226;8.108;2023-05-21T03:18:54;14.60;99.90
4520;DHT22;2272;49.226;8.108;2023-05-21T03:21:22;14.60;99.90
4520;DHT22;2272;49.226;8.108;2023-05-21T03:23:49;14.60;99.90
4520;DHT22;2272;49.226;8.108;2023-05-21T03:26:17;14.60;99.90
4520;DHT22;2272;49.226;8.108;2023-05-21T03:28:44;14.60;99.90
4520;DHT22;2272;49.226;8.108;2023-05-21T03:31:11;14.60;99.90
4520;DHT22;2272;49.226;8.108;2023-05-21T03:33:38;14.60;99.90
4520;DHT22;2272;49.226;8.108;2023-05-21T03:36:05;14.60;99.90
4520;DHT22;2272;49.226;8.108;2023-05-21T03:38:34;14.60;99.90
4520;DHT22;2272;49.226;8.108;2023-05-21T03:41:00;14.60;99.90
4520;DHT22;2272;49.226;8.108;2023-05-21T03:43:27;14.60;99.90
4520;DHT22;2272;49.226;8.108;2023-05-21T03:45:54;14.60;99.90
4520;DHT22;2272;49.226;8.108;2023-05-21T03:48:21;14.60;99.90
4520;DHT22;2272;49.226;8.108;2023-05-21T03:50:50;14.60;99.90
4520;DHT22;2272;49.226;8.108;2023-05-21T03:53:20;14.60;99.90
4520;DHT22;2272;49.226;8.108;2023-05-21T03:55:48;14.60;99.90
4520;DHT22;2272;49.226;8.108;2023-05-21T03:58:19;14.60;99.90
4520;DHT22;2272;49.226;8.108;2023-05-21T04:00:46;14.60;99.90
4520;DHT22;2272;49.226;8.108;2023-05-21T04:03:13;14.60;99.90
4520;DHT22;2272;49.226;8.108;2023-05-21T04:05:40;14.60;99.90
4520;DHT22;2272;49.226;8.108;2023-05-21T04:08:07;14.70;99.90
4520;DHT22;2272;49.226;8.108;2023-05-21T04:10:36;14.60;99.90
4520;DHT22;2272;49.226;8.108;2023-05-21T04:13:04;14.60;99.90
4520;DHT22;2272;49.226;8.108;2023-05-21T04:15:31;14.70;99.90
4520;DHT22;2272;49.226;8.108;2023-05-21T04:18:03;14.70;99.90
4520;DHT22;2272;49.226;8.108;2023-05-21T04:20:31;14.70;99.90
4520;DHT22;2272;49.226;8.108;2023-05-21T04:22:58;14.70;99.90
4520;DHT22;2272;49.226;8.108;2023-05-21T04:25:25;14.70;99.90
4520;DHT22;2272;49.226;8.108;2023-05-21T04:27:52;14.70;99.90
4520;DHT22;2272;49.226;8.108;2023-05-21T04:30:20;14.70;99.90
4520;DHT22;2272;49.226;8.108;2023-05-21T04:32:48;14.70;99.90
4520;DHT22;2272;49.226;8.108;2023-05-21T04:35:17;14.80;99.90
4520;DHT22;2272;49.226;8.108;2023-05-21T04:37:43;14.80;99.90
4520;DHT22;2272;49.226;8.108;2023-05-21T04:40:11;14.80;99.90
4520;DHT22;2272;49.226;8.108;2023-05-21T04:42:43;14.80;99.90
4520;DHT22;2272;49.226;8.108;2023-05-21T04:45:11;14.90;99.90
4520;DHT22;2272;49.226;8.108;2023-05-21T04:47:41;15.00;99.90
4520;DHT22;2272;49.226;8.108;2023-05-21T04:50:08;15.10;99.90
4520;DHT22;2272;49.226;8.108;2023-05-21T04:52:37;15.10;99.90
4520;DHT22;2272;49.226;8.108;2023-05-21T04:55:05;15.20;99.90
4520;DHT22;2272;49.226;8.108;2023-05-21T04:57:32;15.40;99.90
4520;DHT22;2272;49.226;8.108;2023-05-21T04:59:59;15.50;99.90
4520;DHT22;2272;49.226;8.108;2023-05-21T05:02:26;15.60;99.90
4520;DHT22;2272;49.226;8.108;2023-05-21T05:04:54;15.90;99.90
4520;DHT22;2272;49.226;8.108;2023-05-21T05:07:21;16.10;99.90
4520;DHT22;2272;49.226;8.108;2023-05-21T05:09:48;16.40;99.90
4520;DHT22;2272;49.226;8.108;2023-05-21T05:12:14;16.60;99.90
4520;DHT22;2272;49.226;8.108;2023-05-21T05:14:49;16.90;99.90
4520;DHT22;2272;49.226;8.108;2023-05-21T05:17:16;17.20;99.90
4520;DHT22;2272;49.226;8.108;2023-05-21T05:19:45;17.30;99.90
4520;DHT22;2272;49.226;8.108;2023-05-21T05:22:18;17.50;99.90
4520;DHT22;2272;49.226;8.108;2023-05-21T05:24:45;17.60;99.90
4520;DHT22;2272;49.226;8.108;2023-05-21T05:27:18;17.80;99.90
4520;DHT22;2272;49.226;8.108;2023-05-21T05:29:47;18.00;99.90
4520;DHT22;2272;49.226;8.108;2023-05-21T05:32:34;18.20;99.90
4520;DHT22;2272;49.226;8.108;2023-05-21T05:35:01;18.40;99.90
4520;DHT22;2272;49.226;8.108;2023-05-21T05:40:45;18.70;99.90
4520;DHT22;2272;49.226;8.108;2023-05-21T05:43:29;18.80;99.90
4520;DHT22;2272;49.226;8.108;2023-05-21T05:46:09;18.80;99.90
4520;DHT22;2272;49.226;8.108;2023-05-21T05:49:12;18.80;99.90
4520;DHT22;2272;49.226;8.108;2023-05-21T05:52:35;18.70;99.90
4520;DHT22;2272;49.226;8.108;2023-05-21T05:58:30;18.60;99.90
4520;DHT22;2272;49.226;8.108;2023-05-21T06:01:00;18.50;99.90
4520;DHT22;2272;49.226;8.108;2023-05-21T06:03:27;18.50;99.90
4520;DHT22;2272;49.226;8.108;2023-05-21T06:06:16;18.40;99.90
4520;DHT22;2272;49.226;8.108;2023-05-21T06:08:43;18.40;99.90
4520;DHT22;2272;49.226;8.108;2023-05-21T06:11:10;18.50;99.90
4520;DHT22;2272;49.226;8.108;2023-05-21T06:13:38;18.40;99.90
4520;DHT22;2272;49.226;8.108;2023-05-21T06:16:06;18.40;99.90
4520;DHT22;2272;49.226;8.108;2023-05-21T06:18:35;18.40;99.90
4520;DHT22;2272;49.226;8.108;2023-05-21T06:21:02;18.40;99.90
4520;DHT22;2272;49.226;8.108;2023-05-21T06:23:29;18.50;99.90
4520;DHT22;2272;49.226;8.108;2023-05-21T06:26:25;18.50;99.90
4520;DHT22;2272;49.226;8.108;2023-05-21T06:28:52;18.70;99.90
4520;DHT22;2272;49.226;8.108;2023-05-21T06:31:19;18.70;99.90
4520;DHT22;2272;49.226;8.108;2023-05-21T06:33:47;18.80;99.90
4520;DHT22;2272;49.226;8.108;2023-05-21T06:36:14;18.90;99.90
4520;DHT22;2272;49.226;8.108;2023-05-21T06:38:41;19.00;99.90
4520;DHT22;2272;49.226;8.108;2023-05-21T06:41:08;19.20;99.90
4520;DHT22;2272;49.226;8.108;2023-05-21T06:43:36;19.30;99.90
4520;DHT22;2272;49.226;8.108;2023-05-21T06:46:13;19.50;99.90
4520;DHT22;2272;49.226;8.108;2023-05-21T06:48:43;19.60;99.90
4520;DHT22;2272;49.226;8.108;2023-05-21T06:51:10;19.60;99.90
4520;DHT22;2272;49.226;8.108;2023-05-21T06:53:37;19.70;99.90
4520;DHT22;2272;49.226;8.108;2023-05-21T06:56:04;19.80;99.90
4520;DHT22;2272;49.226;8.108;2023-05-21T06:58:31;19.90;99.90
4520;DHT22;2272;49.226;8.108;2023-05-21T07:00:59;19.90;99.90
4520;DHT22;2272;49.226;8.108;2023-05-21T07:03:26;20.00;99.90
4520;DHT22;2272;49.226;8.108;2023-05-21T07:06:02;20.00;99.90
4520;DHT22;2272;49.226;8.108;2023-05-21T07:08:29;20.10;99.90
4520;DHT22;2272;49.226;8.108;2023-05-21T07:10:57;20.10;99.90
4520;DHT22;2272;49.226;8.108;2023-05-21T07:13:28;20.20;99.90
4520;DHT22;2272;49.226;8.108;2023-05-21T07:15:55;20.20;99.90
4520;DHT22;2272;49.226;8.108;2023-05-21T07:18:26;20.10;99.90
4520;DHT22;2272;49.226;8.108;2023-05-21T07:20:57;20.20;99.90
4520;DHT22;2272;49.226;8.108;2023-05-21T07:23:27;20.40;99.90
4520;DHT22;2272;49.226;8.108;2023-05-21T07:25:54;20.50;99.90
4520;DHT22;2272;49.226;8.108;2023-05-21T07:28:28;20.60;99.90
4520;DHT22;2272;49.226;8.108;2023-05-21T07:30:57;20.70;99.90
4520;DHT22;2272;49.226;8.108;2023-05-21T07:33:28;20.90;99.90
4520;DHT22;2272;49.226;8.108;2023-05-21T07:35:55;21.00;99.90
4520;DHT22;2272;49.226;8.108;2023-05-21T07:38:22;20.90;99.90
4520;DHT22;2272;49.226;8.108;2023-05-21T07:40:49;21.00;99.90
4520;DHT22;2272;49.226;8.108;2023-05-21T07:43:16;20.90;99.90
4520;DHT22;2272;49.226;8.108;2023-05-21T07:45:51;21.00;99.90
4520;DHT22;2272;49.226;8.108;2023-05-21T07:48:26;21.10;99.90
4520;DHT22;2272;49.226;8.108;2023-05-21T07:50:58;21.20;99.90
4520;DHT22;2272;49.226;8.108;2023-05-21T07:53:28;21.20;99.90
4520;DHT22;2272;49.226;8.108;2023-05-21T07:55:59;21.10;99.90
4520;DHT22;2272;49.226;8.108;2023-05-21T07:58:36;21.20;99.90
4520;DHT22;2272;49.226;8.108;2023-05-21T08:01:06;21.40;99.90
4520;DHT22;2272;49.226;8.108;2023-05-21T08:03:33;21.50;99.90
4520;DHT22;2272;49.226;8.108;2023-05-21T08:06:02;21.60;99.90
4520;DHT22;2272;49.226;8.108;2023-05-21T08:08:44;21.70;99.90
4520;DHT22;2272;49.226;8.108;2023-05-21T08:11:13;21.80;99.90
4520;DHT22;2272;49.226;8.108;2023-05-21T08:13:42;22.10;99.90
4520;DHT22;2272;49.226;8.108;2023-05-21T08:16:26;22.40;99.90
4520;DHT22;2272;49.226;8.108;2023-05-21T08:18:55;22.50;99.90
4520;DHT22;2272;49.226;8.108;2023-05-21T08:21:23;22.70;99.90
4520;DHT22;2272;49.226;8.108;2023-05-21T08:23:51;22.90;99.90
4520;DHT22;2272;49.226;8.108;2023-05-21T08:26:25;22.80;99.90
4520;DHT22;2272;49.226;8.108;2023-05-21T08:28:59;22.80;99.90
4520;DHT22;2272;49.226;8.108;2023-05-21T08:31:39;22.80;99.90
4520;DHT22;2272;49.226;8.108;2023-05-21T08:34:11;22.90;99.90
4520;DHT22;2272;49.226;8.108;2023-05-21T08:36:54;23.00;99.90
4520;DHT22;2272;49.226;8.108;2023-05-21T08:39:31;23.00;99.90
4520;DHT22;2272;49.226;8.108;2023-05-21T08:42:50;23.10;99.90
4520;DHT22;2272;49.226;8.108;2023-05-21T08:48:32;23.40;99.90
4520;DHT22;2272;49.226;8.108;2023-05-21T08:51:18;23.30;99.90
4520;DHT22;2272;49.226;8.108;2023-05-21T08:53:55;23.40;99.90
4520;DHT22;2272;49.226;8.108;2023-05-21T08:56:23;23.30;99.90
4520;DHT22;2272;49.226;8.108;2023-05-21T08:58:53;23.20;99.90
4520;DHT22;2272;49.226;8.108;2023-05-21T09:01:31;23.30;99.90
4520;DHT22;2272;49.226;8.108;2023-05-21T09:07:19;23.80;99.90
4520;DHT22;2272;49.226;8.108;2023-05-21T09:10:12;23.80;99.90
4520;DHT22;2272;49.226;8.108;2023-05-21T09:12:44;23.70;99.90
4520;DHT22;2272;49.226;8.108;2023-05-21T09:15:23;23.70;99.90
4520;DHT22;2272;49.226;8.108;2023-05-21T09:18:12;23.70;99.90
4520;DHT22;2272;49.226;8.108;2023-05-21T09:20:50;23.50;99.90
4520;DHT22;2272;49.226;8.108;2023-05-21T09:23:18;23.30;99.90
4520;DHT22;2272;49.226;8.108;2023-05-21T09:25:50;23.20;99.90
4520;DHT22;2272;49.226;8.108;2023-05-21T09:28:18;23.10;99.90
4520;DHT22;2272;49.226;8.108;2023-05-21T09:30:48;22.90;99.90
4520;DHT22;2272;49.226;8.108;2023-05-21T09:33:26;22.80;99.90
4520;DHT22;2272;49.226;8.108;2023-05-21T09:35:55;22.70;99.90
4520;DHT22;2272;49.226;8.108;2023-05-21T09:38:22;22.70;99.90
4520;DHT22;2272;49.226;8.108;2023-05-21T09:40:54;22.80;99.90
4520;DHT22;2272;49.226;8.108;2023-05-21T09:43:21;22.80;99.90
4520;DHT22;2272;49.226;8.108;2023-05-21T09:45:52;23.00;99.90
4520;DHT22;2272;49.226;8.108;2023-05-21T09:48:35;23.10;99.90
4520;DHT22;2272;49.226;8.108;2023-05-21T09:51:10;23.30;99.90
4520;DHT22;2272;49.226;8.108;2023-05-21T09:53:42;23.50;99.90
4520;DHT22;2272;49.226;8.108;2023-05-21T09:56:10;23.80;99.90
4520;DHT22;2272;49.226;8.108;2023-05-21T09:58:37;24.30;99.90
4520;DHT22;2272;49.226;8.108;2023-05-21T10:01:05;24.40;99.90
4520;DHT22;2272;49.226;8.108;2023-05-21T10:03:37;24.20;99.90
4520;DHT22;2272;49.226;8.108;2023-05-21T10:06:07;24.10;99.90
4520;DHT22;2272;49.226;8.108;2023-05-21T10:08:35;24.10;99.90
4520;DHT22;2272;49.226;8.108;2023-05-21T10:11:17;24.20;99.90
4520;DHT22;2272;49.226;8.108;2023-05-21T10:13:48;24.20;99.90
4520;DHT22;2272;49.226;8.108;2023-05-21T10:16:22;24.10;99.90
4520;DHT22;2272;49.226;8.108;2023-05-21T10:18:50;24.10;99.90
4520;DHT22;2272;49.226;8.108;2023-05-21T10:21:19;24.20;99.90
4520;DHT22;2272;49.226;8.108;2023-05-21T10:23:47;24.30;99.90
4520;DHT22;2272;49.226;8.108;2023-05-21T10:26:19;24.50;99.90
4520;DHT22;2272;49.226;8.108;2023-05-21T10:28:49;24.70;99.90
4520;DHT22;2272;49.226;8.108;2023-05-21T10:31:17;24.80;99.90
4520;DHT22;2272;49.226;8.108;2023-05-21T10:33:45;24.80;99.90
4520;DHT22;2272;49.226;8.108;2023-05-21T10:36:14;24.80;99.90
4520;DHT22;2272;49.226;8.108;2023-05-21T10:38:43;25.00;99.90
4520;DHT22;2272;49.226;8.108;2023-05-21T10:43:49;25.20;99.90
4520;DHT22;2272;49.226;8.108;2023-05-21T10:46:42;25.30;99.90
4520;DHT22;2272;49.226;8.108;2023-05-21T10:49:36;25.20;99.90
4520;DHT22;2272;49.226;8.108;2023-05-21T10:52:16;25.20;99.90
4520;DHT22;2272;49.226;8.108;2023-05-21T10:54:59;25.20;99.90
4520;DHT22;2272;49.226;8.108;2023-05-21T11:00:30;25.30;99.90
4520;DHT22;2272;49.226;8.108;2023-05-21T11:02:57;25.20;99.90
4520;DHT22;2272;49.226;8.108;2023-05-21T11:05:37;25.00;99.90
4520;DHT22;2272;49.226;8.108;2023-05-21T11:08:23;25.00;99.90
4520;DHT22;2272;49.226;8.108;2023-05-21T11:10:56;25.10;99.90
4520;DHT22;2272;49.226;8.108;2023-05-21T11:13:46;25.30;99.90
4520;DHT22;2272;49.226;8.108;2023-05-21T11:16:44;25.60;99.90
4520;DHT22;2272;49.226;8.108;2023-05-21T11:19:16;26.00;99.90
4520;DHT22;2272;49.226;8.108;2023-05-21T11:22:01;26.30;99.90
4520;DHT22;2272;49.226;8.108;2023-05-21T11:24:34;26.20;99.90
4520;DHT22;2272;49.226;8.108;2023-05-21T11:27:10;25.80;99.90
4520;DHT22;2272;49.226;8.108;2023-05-21T11:30:02;25.70;99.90
4520;DHT22;2272;49.226;8.108;2023-05-21T11:32:35;25.50;99.90
4520;DHT22;2272;49.226;8.108;2023-05-21T11:35:08;25.60;99.90
4520;DHT22;2272;49.226;8.108;2023-05-21T11:37:42;25.90;99.90
4520;DHT22;2272;49.226;8.108;2023-05-21T11:40:19;26.10;99.90
4520;DHT22;2272;49.226;8.108;2023-05-21T11:43:02;26.40;99.90
4520;DHT22;2272;49.226;8.108;2023-05-21T11:45:31;26.80;99.90
4520;DHT22;2272;49.226;8.108;2023-05-21T11:48:04;27.20;99.90
4520;DHT22;2272;49.226;8.108;2023-05-21T11:50:32;27.70;99.90
4520;DHT22;2272;49.226;8.108;2023-05-21T11:53:00;27.90;99.90
4520;DHT22;2272;49.226;8.108;2023-05-21T11:55:42;27.90;99.90
4520;DHT22;2272;49.226;8.108;2023-05-21T11:58:12;27.60;99.90
4520;DHT22;2272;49.226;8.108;2023-05-21T12:00:41;27.40;99.90
4520;DHT22;2272;49.226;8.108;2023-05-21T12:03:13;27.30;99.90
4520;DHT22;2272;49.226;8.108;2023-05-21T12:05:44;27.20;99.90
4520;DHT22;2272;49.226;8.108;2023-05-21T12:08:11;27.30;99.90
4520;DHT22;2272;49.226;8.108;2023-05-21T12:10:38;27.40;99.90
4520;DHT22;2272;49.226;8.108;2023-05-21T12:13:05;27.40;99.90
4520;DHT22;2272;49.226;8.108;2023-05-21T12:15:31;27.50;99.90
4520;DHT22;2272;49.226;8.108;2023-05-21T12:17:59;27.50;99.90
4520;DHT22;2272;49.226;8.108;2023-05-21T12:20:27;27.60;99.90
4520;DHT22;2272;49.226;8.108;2023-05-21T12:22:56;27.70;99.90
4520;DHT22;2272;49.226;8.108;2023-05-21T12:25:23;27.80;99.90
4520;DHT22;2272;49.226;8.108;2023-05-21T12:27:50;27.90;99.90
4520;DHT22;2272;49.226;8.108;2023-05-21T12:30:22;27.80;99.90
4520;DHT22;2272;49.226;8.108;2023-05-21T12:32:50;27.60;99.90
4520;DHT22;2272;49.226;8.108;2023-05-21T12:35:21;27.40;99.90
4520;DHT22;2272;49.226;8.108;2023-05-21T12:37:49;27.50;99.90
4520;DHT22;2272;49.226;8.108;2023-05-21T12:40:16;27.40;99.90
4520;DHT22;2272;49.226;8.108;2023-05-21T12:42:43;27.40;99.90
4520;DHT22;2272;49.226;8.108;2023-05-21T12:45:10;27.40;99.90
4520;DHT22;2272;49.226;8.108;2023-05-21T12:47:37;27.50;99.90
4520;DHT22;2272;49.226;8.108;2023-05-21T12:50:08;27.50;99.90
4520;DHT22;2272;49.226;8.108;2023-05-21T12:52:36;27.60;99.90
4520;DHT22;2272;49.226;8.108;2023-05-21T12:55:08;27.60;99.90
4520;DHT22;2272;49.226;8.108;2023-05-21T12:57:37;27.60;99.90
4520;DHT22;2272;49.226;8.108;2023-05-21T13:00:05;27.90;99.90
4520;DHT22;2272;49.226;8.108;2023-05-21T13:02:34;27.90;99.90
4520;DHT22;2272;49.226;8.108;2023-05-21T13:05:05;27.90;99.90
4520;DHT22;2272;49.226;8.108;2023-05-21T13:07:33;27.70;99.90
4520;DHT22;2272;49.226;8.108;2023-05-21T13:10:02;27.60;99.90
4520;DHT22;2272;49.226;8.108;2023-05-21T13:12:32;27.70;99.90
4520;DHT22;2272;49.226;8.108;2023-05-21T13:15:00;27.80;99.90
4520;DHT22;2272;49.226;8.108;2023-05-21T13:17:27;27.80;99.90
4520;DHT22;2272;49.226;8.108;2023-05-21T13:20:12;27.90;99.90
4520;DHT22;2272;49.226;8.108;2023-05-21T13:22:41;28.10;99.90
4520;DHT22;2272;49.226;8.108;2023-05-21T13:25:08;28.20;99.90
4520;DHT22;2272;49.226;8.108;2023-05-21T13:27:37;28.30;99.90
4520;DHT22;2272;49.226;8.108;2023-05-21T13:30:07;28.50;99.70
4520;DHT22;2272;49.226;8.108;2023-05-21T13:35:03;29.20;99.20
4520;DHT22;2272;49.226;8.108;2023-05-21T13:37:30;29.70;98.40
4520;DHT22;2272;49.226;8.108;2023-05-21T13:39:57;29.70;98.10
4520;DHT22;2272;49.226;8.108;2023-05-21T13:42:24;29.60;98.10
4520;DHT22;2272;49.226;8.108;2023-05-21T13:44:52;29.60;98.00
4520;DHT22;2272;49.226;8.108;2023-05-21T13:47:27;29.30;98.10
4520;DHT22;2272;49.226;8.108;2023-05-21T13:50:00;29.10;98.20
4520;DHT22;2272;49.226;8.108;2023-05-21T13:52:31;29.20;98.50
4520;DHT22;2272;49.226;8.108;2023-05-21T13:55:06;29.20;98.30
4520;DHT22;2272;49.226;8.108;2023-05-21T13:57:35;28.90;98.70
4520;DHT22;2272;49.226;8.108;2023-05-21T14:00:05;28.90;98.30
4520;DHT22;2272;49.226;8.108;2023-05-21T14:02:51;28.80;98.50
4520;DHT22;2272;49.226;8.108;2023-05-21T14:05:25;28.60;98.30
4520;DHT22;2272;49.226;8.108;2023-05-21T14:08:08;28.50;98.60
4520;DHT22;2272;49.226;8.108;2023-05-21T14:10:41;28.40;98.40
4520;DHT22;2272;49.226;8.108;2023-05-21T14:13:09;28.50;98.50
4520;DHT22;2272;49.226;8.108;2023-05-21T14:15:39;28.80;98.40
4520;DHT22;2272;49.226;8.108;2023-05-21T14:18:07;29.00;98.70
4520;DHT22;2272;49.226;8.108;2023-05-21T14:20:39;29.30;97.70
4520;DHT22;2272;49.226;8.108;2023-05-21T14:23:06;29.50;97.20
4520;DHT22;2272;49.226;8.108;2023-05-21T14:25:33;29.50;96.70
4520;DHT22;2272;49.226;8.108;2023-05-21T14:28:04;29.50;96.90
4520;DHT22;2272;49.226;8.108;2023-05-21T14:30:31;29.60;96.70
4520;DHT22;2272;49.226;8.108;2023-05-21T14:32:59;29.70;96.60
4520;DHT22;2272;49.226;8.108;2023-05-21T14:35:26;29.80;96.70
4520;DHT22;2272;49.226;8.108;2023-05-21T14:37:55;29.90;96.30
4520;DHT22;2272;49.226;8.108;2023-05-21T14:40:22;29.80;96.30
4520;DHT22;2272;49.226;8.108;2023-05-21T14:42:49;29.60;96.60
4520;DHT22;2272;49.226;8.108;2023-05-21T14:45:17;29.30;96.60
4520;DHT22;2272;49.226;8.108;2023-05-21T14:47:44;29.10;97.50
4520;DHT22;2272;49.226;8.108;2023-05-21T14:50:14;28.90;97.70
4520;DHT22;2272;49.226;8.108;2023-05-21T14:52:44;28.90;97.40
4520;DHT22;2272;49.226;8.108;2023-05-21T14:55:12;28.70;97.50
4520;DHT22;2272;49.226;8.108;2023-05-21T14:57:41;28.60;97.50
4520;DHT22;2272;49.226;8.108;2023-05-21T15:00:10;28.50;97.30
4520;DHT22;2272;49.226;8.108;2023-05-21T15:02:37;28.50;97.20
4520;DHT22;2272;49.226;8.108;2023-05-21T15:05:05;28.50;97.50
4520;DHT22;2272;49.226;8.108;2023-05-21T15:07:33;28.60;97.60
4520;DHT22;2272;49.226;8.108;2023-05-21T15:10:00;28.70;97.00
4520;DHT22;2272;49.226;8.108;2023-05-21T15:12:27;28.90;97.30
4520;DHT22;2272;49.226;8.108;2023-05-21T15:14:54;29.10;97.00
4520;DHT22;2272;49.226;8.108;2023-05-21T15:17:21;29.10;96.70
4520;DHT22;2272;49.226;8.108;2023-05-21T15:19:48;28.90;96.90
4520;DHT22;2272;49.226;8.108;2023-05-21T15:22:16;28.90;97.00
4520;DHT22;2272;49.226;8.108;2023-05-21T15:24:44;28.80;96.20
4520;DHT22;2272;49.226;8.108;2023-05-21T15:27:11;28.60;95.30
4520;DHT22;2272;49.226;8.108;2023-05-21T15:29:38;28.50;94.30
4520;DHT22;2272;49.226;8.108;2023-05-21T15:32:05;28.50;94.40
4520;DHT22;2272;49.226;8.108;2023-05-21T15:34:32;28.70;94.20
4520;DHT22;2272;49.226;8.108;2023-05-21T15:36:59;28.80;92.60
4520;DHT22;2272;49.226;8.108;2023-05-21T15:39:27;28.80;92.10
4520;DHT22;2272;49.226;8.108;2023-05-21T15:41:55;28.90;92.50
4520;DHT22;2272;49.226;8.108;2023-05-21T15:44:23;29.10;92.90
4520;DHT22;2272;49.226;8.108;2023-05-21T15:46:50;29.40;91.60
4520;DHT22;2272;49.226;8.108;2023-05-21T15:49:19;29.50;91.50
4520;DHT22;2272;49.226;8.108;2023-05-21T15:51:47;29.70;91.20
4520;DHT22;2272;49.226;8.108;2023-05-21T15:54:19;29.90;90.30
4520;DHT22;2272;49.226;8.108;2023-05-21T15:57:01;30.00;89.30
4520;DHT22;2272;49.226;8.108;2023-05-21T15:59:28;30.20;85.90
4520;DHT22;2272;49.226;8.108;2023-05-21T16:01:58;30.20;85.40
4520;DHT22;2272;49.226;8.108;2023-05-21T16:04:25;30.20;84.60
4520;DHT22;2272;49.226;8.108;2023-05-21T16:06:57;30.30;84.90
4520;DHT22;2272;49.226;8.108;2023-05-21T16:09:24;30.40;85.00
4520;DHT22;2272;49.226;8.108;2023-05-21T16:11:51;30.50;84.60
4520;DHT22;2272;49.226;8.108;2023-05-21T16:14:20;30.40;87.70
4520;DHT22;2272;49.226;8.108;2023-05-21T16:16:48;30.30;90.50
4520;DHT22;2272;49.226;8.108;2023-05-21T16:19:17;30.10;91.30
4520;DHT22;2272;49.226;8.108;2023-05-21T16:21:44;30.00;91.60
4520;DHT22;2272;49.226;8.108;2023-05-21T16:24:15;30.20;91.60
4520;DHT22;2272;49.226;8.108;2023-05-21T16:26:42;30.80;91.00
4520;DHT22;2272;49.226;8.108;2023-05-21T16:29:10;31.80;89.50
4520;DHT22;2272;49.226;8.108;2023-05-21T16:31:38;32.70;86.90
4520;DHT22;2272;49.226;8.108;2023-05-21T16:34:05;33.50;76.40
4520;DHT22;2272;49.226;8.108;2023-05-21T16:36:32;33.90;71.40
4520;DHT22;2272;49.226;8.108;2023-05-21T16:41:26;34.50;66.80
4520;DHT22;2272;49.226;8.108;2023-05-21T16:43:53;34.90;66.50
4520;DHT22;2272;49.226;8.108;2023-05-21T16:46:20;35.20;66.30